Track Масный Дмитрий

Time Latitude Longitude Accuracy (66% radius in meters) Altitude (meters) Speed (km/hour) Bearing (degrees) Battery (%) GPS flag
06:45:23 57.205042 60.114485 0 0 0 0 1 delete
06:45:22 57.205007 60.114503 0 0 0 0 1 delete
06:45:21 57.204983 60.114510 0 0 0 0 1 delete
06:45:20 57.204973 60.114503 0 0 0 0 1 delete
06:45:19 57.204967 60.114492 0 0 0 0 1 delete
06:45:18 57.204955 60.114480 0 0 0 0 1 delete
06:45:17 57.204943 60.114478 0 0 0 0 1 delete
06:45:16 57.204942 60.114475 0 0 0 0 1 delete
06:45:15 57.204943 60.114468 0 0 0 0 1 delete
06:45:14 57.204950 60.114473 0 0 0 0 1 delete
06:45:13 57.204972 60.114480 0 0 0 0 1 delete
06:45:12 57.205002 60.114488 0 0 0 0 1 delete
06:45:11 57.205030 60.114490 0 0 0 0 1 delete
06:45:10 57.205058 60.114477 0 0 0 0 1 delete
06:45:09 57.205087 60.114460 0 0 0 0 1 delete
06:45:08 57.205117 60.114465 0 0 0 0 1 delete
06:45:07 57.205140 60.114520 0 0 0 0 1 delete
06:45:06 57.205158 60.114605 0 0 0 0 1 delete
06:45:05 57.205170 60.114710 0 0 0 0 1 delete
06:45:04 57.205183 60.114808 0 0 0 0 1 delete
06:45:03 57.205197 60.114895 0 0 0 0 1 delete
06:45:02 57.205207 60.114962 0 0 0 0 1 delete
06:45:01 57.205210 60.115032 0 0 0 0 1 delete
06:45:00 57.205208 60.115108 0 0 0 0 1 delete
06:44:59 57.205210 60.115182 0 0 0 0 1 delete
06:44:58 57.205220 60.115235 0 0 0 0 1 delete
06:44:57 57.205242 60.115260 0 0 0 0 1 delete
06:44:56 57.205273 60.115258 0 0 0 0 1 delete
06:44:55 57.205307 60.115238 0 0 0 0 1 delete
06:44:54 57.205335 60.115218 0 0 0 0 1 delete
06:44:53 57.205363 60.115198 0 0 0 0 1 delete
06:44:52 57.205393 60.115177 0 0 0 0 1 delete
06:44:51 57.205428 60.115165 0 0 0 0 1 delete
06:44:50 57.205462 60.115157 0 0 0 0 1 delete
06:44:49 57.205493 60.115153 0 0 0 0 1 delete
06:44:48 57.205532 60.115153 0 0 0 0 1 delete
06:44:47 57.205573 60.115120 0 0 0 0 1 delete
06:44:46 57.205615 60.115083 0 0 0 0 1 delete
06:44:45 57.205647 60.115038 0 0 0 0 1 delete
06:44:44 57.205673 60.114992 0 0 0 0 1 delete
06:44:43 57.205712 60.114935 0 0 0 0 1 delete
06:44:42 57.205762 60.114907 0 0 0 0 1 delete
06:44:41 57.205818 60.114935 0 0 0 0 1 delete
06:44:40 57.205873 60.114997 0 0 0 0 1 delete
06:44:39 57.205920 60.115075 0 0 0 0 1 delete
06:44:38 57.205963 60.115145 0 0 0 0 1 delete
06:44:37 57.206008 60.115228 0 0 0 0 1 delete
06:44:36 57.206052 60.115307 0 0 0 0 1 delete
06:44:35 57.206097 60.115377 0 0 0 0 1 delete
06:44:34 57.206140 60.115440 0 0 0 0 1 delete